Terminal Aerodrome Forecast
Issued by NWS Lubbock, TX

Home | Current Version | Previous Version | Text Only | Print | Product List | Glossary On
Versions: 1 2 3 4 5 6 7 8 9 10 11 12 13 14 15
000
FTUS44 KLUB 272332
TAFLBB
TAF
KLBB 272332Z 2800/2824 28018KT P6SM FEW250
     FM280200 27009KT P6SM FEW250
     FM280500 01018G28KT P6SM FEW250=

USA.gov is the U.S. government's official web portal to all federal, state and local government web resources and services.